sensor_id;sensor_type;location;lat;lon;timestamp;P1;durP1;ratioP1;P2;durP2;ratioP2
25639;SDS011;13497;48.322;16.204;2022-10-31T00:01:12;3.63;;;1.90;;
25639;SDS011;13497;48.322;16.204;2022-10-31T00:03:39;3.03;;;2.28;;
25639;SDS011;13497;48.322;16.204;2022-10-31T00:06:04;2.80;;;1.50;;
25639;SDS011;13497;48.322;16.204;2022-10-31T00:08:30;3.23;;;1.30;;
25639;SDS011;13497;48.322;16.204;2022-10-31T00:10:55;1.97;;;1.40;;
25639;SDS011;13497;48.322;16.204;2022-10-31T00:13:21;2.23;;;1.70;;
25639;SDS011;13497;48.322;16.204;2022-10-31T00:15:47;1.53;;;1.00;;
25639;SDS011;13497;48.322;16.204;2022-10-31T00:18:12;1.20;;;0.97;;
25639;SDS011;13497;48.322;16.204;2022-10-31T00:20:38;1.90;;;1.23;;
25639;SDS011;13497;48.322;16.204;2022-10-31T00:23:04;1.17;;;1.00;;
25639;SDS011;13497;48.322;16.204;2022-10-31T00:25:33;3.70;;;1.48;;
25639;SDS011;13497;48.322;16.204;2022-10-31T00:28:01;11.63;;;5.30;;
25639;SDS011;13497;48.322;16.204;2022-10-31T00:32:53;13.77;;;5.90;;
25639;SDS011;13497;48.322;16.204;2022-10-31T00:35:19;14.80;;;5.13;;
25639;SDS011;13497;48.322;16.204;2022-10-31T00:37:44;2.17;;;1.37;;
25639;SDS011;13497;48.322;16.204;2022-10-31T00:40:10;2.03;;;1.60;;
25639;SDS011;13497;48.322;16.204;2022-10-31T00:42:36;3.33;;;2.17;;
25639;SDS011;13497;48.322;16.204;2022-10-31T00:45:02;1.93;;;1.10;;
25639;SDS011;13497;48.322;16.204;2022-10-31T00:47:27;2.30;;;1.63;;
25639;SDS011;13497;48.322;16.204;2022-10-31T00:49:56;4.75;;;3.08;;
25639;SDS011;13497;48.322;16.204;2022-10-31T00:52:21;4.53;;;2.73;;
25639;SDS011;13497;48.322;16.204;2022-10-31T00:54:47;2.67;;;1.80;;
25639;SDS011;13497;48.322;16.204;2022-10-31T00:57:12;4.23;;;2.80;;
25639;SDS011;13497;48.322;16.204;2022-10-31T00:59:38;3.17;;;1.93;;
25639;SDS011;13497;48.322;16.204;2022-10-31T01:02:03;1.67;;;1.13;;
25639;SDS011;13497;48.322;16.204;2022-10-31T01:04:29;1.40;;;1.27;;
25639;SDS011;13497;48.322;16.204;2022-10-31T01:06:55;2.03;;;1.07;;
25639;SDS011;13497;48.322;16.204;2022-10-31T01:09:20;2.27;;;1.20;;
25639;SDS011;13497;48.322;16.204;2022-10-31T01:11:46;2.50;;;1.67;;
25639;SDS011;13497;48.322;16.204;2022-10-31T01:14:11;3.27;;;2.27;;
25639;SDS011;13497;48.322;16.204;2022-10-31T01:16:37;3.30;;;2.03;;
25639;SDS011;13497;48.322;16.204;2022-10-31T01:19:02;2.53;;;1.40;;
25639;SDS011;13497;48.322;16.204;2022-10-31T01:21:28;4.27;;;2.20;;
25639;SDS011;13497;48.322;16.204;2022-10-31T01:23:55;4.50;;;2.22;;
25639;SDS011;13497;48.322;16.204;2022-10-31T01:31:20;3.20;;;1.55;;
25639;SDS011;13497;48.322;16.204;2022-10-31T01:33:48;1.77;;;1.23;;
25639;SDS011;13497;48.322;16.204;2022-10-31T01:36:18;1.30;;;0.93;;
25639;SDS011;13497;48.322;16.204;2022-10-31T01:38:49;2.85;;;1.55;;
25639;SDS011;13497;48.322;16.204;2022-10-31T01:41:18;1.10;;;1.02;;
25639;SDS011;13497;48.322;16.204;2022-10-31T01:43:58;1.83;;;1.30;;
25639;SDS011;13497;48.322;16.204;2022-10-31T01:46:48;1.92;;;1.20;;
25639;SDS011;13497;48.322;16.204;2022-10-31T01:49:21;2.08;;;1.38;;
25639;SDS011;13497;48.322;16.204;2022-10-31T01:52:02;1.92;;;1.33;;
25639;SDS011;13497;48.322;16.204;2022-10-31T01:54:48;2.08;;;1.20;;
25639;SDS011;13497;48.322;16.204;2022-10-31T01:57:18;6.38;;;1.60;;
25639;SDS011;13497;48.322;16.204;2022-10-31T01:59:47;1.95;;;1.30;;
25639;SDS011;13497;48.322;16.204;2022-10-31T02:02:15;2.40;;;1.15;;
25639;SDS011;13497;48.322;16.204;2022-10-31T02:04:43;4.43;;;1.83;;
25639;SDS011;13497;48.322;16.204;2022-10-31T02:07:12;2.10;;;1.45;;
25639;SDS011;13497;48.322;16.204;2022-10-31T02:09:41;4.22;;;1.75;;
25639;SDS011;13497;48.322;16.204;2022-10-31T02:12:09;4.80;;;1.75;;
25639;SDS011;13497;48.322;16.204;2022-10-31T02:14:35;2.95;;;0.95;;
25639;SDS011;13497;48.322;16.204;2022-10-31T02:17:04;1.30;;;1.05;;
25639;SDS011;13497;48.322;16.204;2022-10-31T02:19:34;0.70;;;0.70;;
25639;SDS011;13497;48.322;16.204;2022-10-31T02:22:26;0.77;;;0.70;;
25639;SDS011;13497;48.322;16.204;2022-10-31T02:30:17;2.17;;;1.25;;
25639;SDS011;13497;48.322;16.204;2022-10-31T02:37:50;1.63;;;1.13;;
25639;SDS011;13497;48.322;16.204;2022-10-31T02:40:25;5.07;;;1.83;;
25639;SDS011;13497;48.322;16.204;2022-10-31T02:45:31;2.92;;;1.17;;
25639;SDS011;13497;48.322;16.204;2022-10-31T02:48:10;1.55;;;1.08;;
25639;SDS011;13497;48.322;16.204;2022-10-31T02:50:40;1.10;;;1.00;;
25639;SDS011;13497;48.322;16.204;2022-10-31T02:53:09;2.28;;;1.50;;
25639;SDS011;13497;48.322;16.204;2022-10-31T02:58:01;1.30;;;0.90;;
25639;SDS011;13497;48.322;16.204;2022-10-31T03:00:35;1.00;;;0.90;;
25639;SDS011;13497;48.322;16.204;2022-10-31T03:05:51;0.95;;;0.70;;
25639;SDS011;13497;48.322;16.204;2022-10-31T03:11:00;0.68;;;0.68;;
25639;SDS011;13497;48.322;16.204;2022-10-31T03:18:46;1.15;;;0.90;;
25639;SDS011;13497;48.322;16.204;2022-10-31T03:21:20;1.10;;;0.88;;
25639;SDS011;13497;48.322;16.204;2022-10-31T03:23:50;1.10;;;0.77;;
25639;SDS011;13497;48.322;16.204;2022-10-31T03:26:18;1.02;;;0.80;;
25639;SDS011;13497;48.322;16.204;2022-10-31T03:28:50;0.50;;;0.50;;
25639;SDS011;13497;48.322;16.204;2022-10-31T03:31:19;0.85;;;0.70;;
25639;SDS011;13497;48.322;16.204;2022-10-31T03:33:49;0.55;;;0.45;;
25639;SDS011;13497;48.322;16.204;2022-10-31T03:36:17;0.68;;;0.50;;
25639;SDS011;13497;48.322;16.204;2022-10-31T03:38:44;0.98;;;0.47;;
25639;SDS011;13497;48.322;16.204;2022-10-31T03:41:13;1.50;;;0.80;;
25639;SDS011;13497;48.322;16.204;2022-10-31T03:43:46;0.98;;;0.70;;
25639;SDS011;13497;48.322;16.204;2022-10-31T03:46:19;1.60;;;0.80;;
25639;SDS011;13497;48.322;16.204;2022-10-31T03:48:45;0.90;;;0.52;;
25639;SDS011;13497;48.322;16.204;2022-10-31T03:51:22;2.20;;;0.70;;
25639;SDS011;13497;48.322;16.204;2022-10-31T03:54:08;0.82;;;0.60;;
25639;SDS011;13497;48.322;16.204;2022-10-31T03:56:40;0.47;;;0.47;;
25639;SDS011;13497;48.322;16.204;2022-10-31T03:59:23;0.82;;;0.45;;
25639;SDS011;13497;48.322;16.204;2022-10-31T04:01:56;1.13;;;0.90;;
25639;SDS011;13497;48.322;16.204;2022-10-31T04:04:24;0.95;;;0.73;;
25639;SDS011;13497;48.322;16.204;2022-10-31T04:06:51;0.90;;;0.55;;
25639;SDS011;13497;48.322;16.204;2022-10-31T04:09:19;4.28;;;1.50;;
25639;SDS011;13497;48.322;16.204;2022-10-31T04:11:48;2.30;;;1.08;;
25639;SDS011;13497;48.322;16.204;2022-10-31T04:14:16;2.28;;;1.00;;
25639;SDS011;13497;48.322;16.204;2022-10-31T04:16:42;5.00;;;0.80;;
25639;SDS011;13497;48.322;16.204;2022-10-31T04:19:12;3.85;;;1.98;;
25639;SDS011;13497;48.322;16.204;2022-10-31T04:21:39;7.50;;;1.70;;
25639;SDS011;13497;48.322;16.204;2022-10-31T04:24:08;2.15;;;1.17;;
25639;SDS011;13497;48.322;16.204;2022-10-31T04:26:34;3.10;;;1.83;;
25639;SDS011;13497;48.322;16.204;2022-10-31T04:29:00;3.67;;;1.33;;
25639;SDS011;13497;48.322;16.204;2022-10-31T04:31:25;12.73;;;4.03;;
25639;SDS011;13497;48.322;16.204;2022-10-31T04:33:51;4.20;;;1.97;;
25639;SDS011;13497;48.322;16.204;2022-10-31T04:36:17;2.73;;;1.43;;
25639;SDS011;13497;48.322;16.204;2022-10-31T04:38:42;2.00;;;1.23;;
25639;SDS011;13497;48.322;16.204;2022-10-31T04:41:08;2.47;;;1.70;;
25639;SDS011;13497;48.322;16.204;2022-10-31T04:43:33;4.53;;;1.97;;
25639;SDS011;13497;48.322;16.204;2022-10-31T04:45:59;7.00;;;1.70;;
25639;SDS011;13497;48.322;16.204;2022-10-31T04:48:25;5.43;;;2.47;;
25639;SDS011;13497;48.322;16.204;2022-10-31T04:50:51;2.42;;;1.80;;
25639;SDS011;13497;48.322;16.204;2022-10-31T04:53:16;3.33;;;1.50;;
25639;SDS011;13497;48.322;16.204;2022-10-31T04:55:42;1.60;;;1.17;;
25639;SDS011;13497;48.322;16.204;2022-10-31T04:58:08;1.90;;;1.48;;
25639;SDS011;13497;48.322;16.204;2022-10-31T05:00:33;2.53;;;1.63;;
25639;SDS011;13497;48.322;16.204;2022-10-31T05:02:59;3.93;;;2.60;;
25639;SDS011;13497;48.322;16.204;2022-10-31T05:05:26;2.20;;;1.40;;
25639;SDS011;13497;48.322;16.204;2022-10-31T05:07:56;2.33;;;1.35;;
25639;SDS011;13497;48.322;16.204;2022-10-31T05:12:53;2.20;;;1.30;;
25639;SDS011;13497;48.322;16.204;2022-10-31T05:15:24;2.33;;;1.08;;
25639;SDS011;13497;48.322;16.204;2022-10-31T05:17:50;3.03;;;1.25;;
25639;SDS011;13497;48.322;16.204;2022-10-31T05:20:17;2.53;;;0.98;;
25639;SDS011;13497;48.322;16.204;2022-10-31T05:22:51;1.48;;;1.05;;
25639;SDS011;13497;48.322;16.204;2022-10-31T05:25:18;2.22;;;1.23;;
25639;SDS011;13497;48.322;16.204;2022-10-31T05:27:45;2.35;;;1.30;;
25639;SDS011;13497;48.322;16.204;2022-10-31T05:30:13;2.60;;;1.10;;
25639;SDS011;13497;48.322;16.204;2022-10-31T05:32:41;2.17;;;1.40;;
25639;SDS011;13497;48.322;16.204;2022-10-31T05:35:10;2.60;;;1.13;;
25639;SDS011;13497;48.322;16.204;2022-10-31T05:37:38;1.58;;;0.63;;
25639;SDS011;13497;48.322;16.204;2022-10-31T05:40:04;2.05;;;1.23;;
25639;SDS011;13497;48.322;16.204;2022-10-31T05:42:31;1.67;;;1.33;;
25639;SDS011;13497;48.322;16.204;2022-10-31T05:44:57;3.20;;;1.00;;
25639;SDS011;13497;48.322;16.204;2022-10-31T05:47:23;2.00;;;1.33;;
25639;SDS011;13497;48.322;16.204;2022-10-31T05:49:49;2.25;;;1.65;;
25639;SDS011;13497;48.322;16.204;2022-10-31T05:52:14;1.87;;;1.30;;
25639;SDS011;13497;48.322;16.204;2022-10-31T05:54:40;2.57;;;1.20;;
25639;SDS011;13497;48.322;16.204;2022-10-31T05:57:05;5.87;;;2.73;;
25639;SDS011;13497;48.322;16.204;2022-10-31T05:59:31;2.80;;;1.85;;
25639;SDS011;13497;48.322;16.204;2022-10-31T06:01:57;2.03;;;1.20;;
25639;SDS011;13497;48.322;16.204;2022-10-31T06:04:23;2.43;;;1.33;;
25639;SDS011;13497;48.322;16.204;2022-10-31T06:06:48;3.17;;;0.87;;
25639;SDS011;13497;48.322;16.204;2022-10-31T06:09:14;2.37;;;1.23;;
25639;SDS011;13497;48.322;16.204;2022-10-31T06:11:40;1.60;;;1.00;;
25639;SDS011;13497;48.322;16.204;2022-10-31T06:14:05;1.90;;;1.47;;
25639;SDS011;13497;48.322;16.204;2022-10-31T06:16:31;1.73;;;1.20;;
25639;SDS011;13497;48.322;16.204;2022-10-31T06:18:57;2.27;;;1.10;;
25639;SDS011;13497;48.322;16.204;2022-10-31T06:21:22;1.47;;;1.03;;
25639;SDS011;13497;48.322;16.204;2022-10-31T06:23:48;1.20;;;0.90;;
25639;SDS011;13497;48.322;16.204;2022-10-31T06:26:14;2.27;;;1.20;;
25639;SDS011;13497;48.322;16.204;2022-10-31T06:28:40;2.83;;;1.20;;
25639;SDS011;13497;48.322;16.204;2022-10-31T06:31:06;1.48;;;1.08;;
25639;SDS011;13497;48.322;16.204;2022-10-31T06:33:32;4.50;;;1.57;;
25639;SDS011;13497;48.322;16.204;2022-10-31T06:35:58;1.98;;;0.80;;
25639;SDS011;13497;48.322;16.204;2022-10-31T06:38:25;1.90;;;1.23;;
25639;SDS011;13497;48.322;16.204;2022-10-31T06:40:52;2.95;;;1.55;;
25639;SDS011;13497;48.322;16.204;2022-10-31T06:43:18;1.08;;;0.75;;
25639;SDS011;13497;48.322;16.204;2022-10-31T06:45:44;2.20;;;1.52;;
25639;SDS011;13497;48.322;16.204;2022-10-31T06:48:10;1.27;;;1.07;;
25639;SDS011;13497;48.322;16.204;2022-10-31T06:50:35;1.47;;;1.00;;
25639;SDS011;13497;48.322;16.204;2022-10-31T06:53:01;1.97;;;1.17;;
25639;SDS011;13497;48.322;16.204;2022-10-31T06:55:29;2.13;;;1.10;;
25639;SDS011;13497;48.322;16.204;2022-10-31T06:57:57;1.42;;;1.05;;
25639;SDS011;13497;48.322;16.204;2022-10-31T07:00:24;1.70;;;1.10;;
25639;SDS011;13497;48.322;16.204;2022-10-31T07:02:58;1.67;;;1.20;;
25639;SDS011;13497;48.322;16.204;2022-10-31T07:05:25;1.70;;;1.23;;
25639;SDS011;13497;48.322;16.204;2022-10-31T07:10:22;1.27;;;0.80;;
25639;SDS011;13497;48.322;16.204;2022-10-31T07:12:48;2.92;;;1.50;;
25639;SDS011;13497;48.322;16.204;2022-10-31T07:15:18;2.20;;;1.00;;
25639;SDS011;13497;48.322;16.204;2022-10-31T07:17:44;3.10;;;1.50;;
25639;SDS011;13497;48.322;16.204;2022-10-31T07:20:10;1.83;;;0.97;;
25639;SDS011;13497;48.322;16.204;2022-10-31T07:22:36;1.80;;;1.13;;
25639;SDS011;13497;48.322;16.204;2022-10-31T07:27:28;1.92;;;0.90;;
25639;SDS011;13497;48.322;16.204;2022-10-31T07:29:59;2.85;;;1.40;;
25639;SDS011;13497;48.322;16.204;2022-10-31T07:32:27;2.17;;;1.23;;
25639;SDS011;13497;48.322;16.204;2022-10-31T07:34:52;1.20;;;1.10;;
25639;SDS011;13497;48.322;16.204;2022-10-31T07:37:18;1.73;;;1.20;;
25639;SDS011;13497;48.322;16.204;2022-10-31T07:39:43;1.97;;;1.10;;
25639;SDS011;13497;48.322;16.204;2022-10-31T07:42:09;3.10;;;1.47;;
25639;SDS011;13497;48.322;16.204;2022-10-31T07:44:34;2.17;;;1.53;;
25639;SDS011;13497;48.322;16.204;2022-10-31T07:47:00;3.40;;;1.57;;
25639;SDS011;13497;48.322;16.204;2022-10-31T07:51:52;2.25;;;1.55;;
25639;SDS011;13497;48.322;16.204;2022-10-31T07:54:18;1.97;;;1.10;;
25639;SDS011;13497;48.322;16.204;2022-10-31T07:56:43;1.13;;;0.90;;
25639;SDS011;13497;48.322;16.204;2022-10-31T07:59:09;1.57;;;1.20;;
25639;SDS011;13497;48.322;16.204;2022-10-31T08:01:36;2.10;;;1.47;;
25639;SDS011;13497;48.322;16.204;2022-10-31T08:04:02;2.30;;;1.33;;
25639;SDS011;13497;48.322;16.204;2022-10-31T08:06:27;1.77;;;1.40;;
25639;SDS011;13497;48.322;16.204;2022-10-31T08:08:53;2.50;;;1.23;;
25639;SDS011;13497;48.322;16.204;2022-10-31T08:11:19;4.05;;;2.08;;
25639;SDS011;13497;48.322;16.204;2022-10-31T08:13:46;2.20;;;1.77;;
25639;SDS011;13497;48.322;16.204;2022-10-31T08:16:11;1.92;;;1.25;;
25639;SDS011;13497;48.322;16.204;2022-10-31T08:18:37;1.40;;;1.03;;
25639;SDS011;13497;48.322;16.204;2022-10-31T08:21:03;1.47;;;1.13;;
25639;SDS011;13497;48.322;16.204;2022-10-31T08:23:28;3.13;;;1.50;;
25639;SDS011;13497;48.322;16.204;2022-10-31T08:28:22;1.20;;;0.82;;
25639;SDS011;13497;48.322;16.204;2022-10-31T08:30:47;2.77;;;1.53;;
25639;SDS011;13497;48.322;16.204;2022-10-31T08:33:14;2.63;;;1.57;;
25639;SDS011;13497;48.322;16.204;2022-10-31T08:35:43;2.45;;;1.48;;
25639;SDS011;13497;48.322;16.204;2022-10-31T08:38:10;2.65;;;1.80;;
25639;SDS011;13497;48.322;16.204;2022-10-31T08:40:37;4.03;;;1.60;;
25639;SDS011;13497;48.322;16.204;2022-10-31T08:43:04;2.03;;;1.42;;
25639;SDS011;13497;48.322;16.204;2022-10-31T08:45:33;1.88;;;0.90;;
25639;SDS011;13497;48.322;16.204;2022-10-31T08:47:59;1.88;;;1.17;;
25639;SDS011;13497;48.322;16.204;2022-10-31T08:50:26;2.63;;;1.75;;
25639;SDS011;13497;48.322;16.204;2022-10-31T08:52:53;1.52;;;1.20;;
25639;SDS011;13497;48.322;16.204;2022-10-31T08:55:24;3.63;;;1.90;;
25639;SDS011;13497;48.322;16.204;2022-10-31T08:57:54;1.63;;;1.30;;
25639;SDS011;13497;48.322;16.204;2022-10-31T09:00:21;2.58;;;1.27;;
25639;SDS011;13497;48.322;16.204;2022-10-31T09:02:46;0.87;;;0.73;;
25639;SDS011;13497;48.322;16.204;2022-10-31T09:05:12;6.63;;;1.30;;
25639;SDS011;13497;48.322;16.204;2022-10-31T09:07:37;2.00;;;1.07;;
25639;SDS011;13497;48.322;16.204;2022-10-31T09:10:03;2.53;;;1.20;;
25639;SDS011;13497;48.322;16.204;2022-10-31T09:12:29;3.90;;;1.53;;
25639;SDS011;13497;48.322;16.204;2022-10-31T09:14:54;1.97;;;1.47;;
25639;SDS011;13497;48.322;16.204;2022-10-31T09:17:22;3.10;;;1.57;;
25639;SDS011;13497;48.322;16.204;2022-10-31T09:19:48;1.50;;;1.17;;
25639;SDS011;13497;48.322;16.204;2022-10-31T09:22:13;2.60;;;1.73;;
25639;SDS011;13497;48.322;16.204;2022-10-31T09:24:39;3.47;;;1.80;;
25639;SDS011;13497;48.322;16.204;2022-10-31T09:27:05;1.43;;;0.80;;
25639;SDS011;13497;48.322;16.204;2022-10-31T09:29:30;2.07;;;1.60;;
25639;SDS011;13497;48.322;16.204;2022-10-31T09:31:56;2.73;;;1.53;;
25639;SDS011;13497;48.322;16.204;2022-10-31T09:34:22;5.22;;;1.85;;
25639;SDS011;13497;48.322;16.204;2022-10-31T09:36:48;3.03;;;2.00;;
25639;SDS011;13497;48.322;16.204;2022-10-31T09:39:14;1.43;;;0.97;;
25639;SDS011;13497;48.322;16.204;2022-10-31T09:41:45;4.57;;;2.00;;
25639;SDS011;13497;48.322;16.204;2022-10-31T09:44:30;1.80;;;1.10;;
25639;SDS011;13497;48.322;16.204;2022-10-31T09:47:17;3.03;;;1.67;;
25639;SDS011;13497;48.322;16.204;2022-10-31T09:50:25;2.28;;;1.60;;
25639;SDS011;13497;48.322;16.204;2022-10-31T09:53:02;1.63;;;1.08;;
25639;SDS011;13497;48.322;16.204;2022-10-31T09:55:40;3.50;;;1.70;;
25639;SDS011;13497;48.322;16.204;2022-10-31T09:58:15;2.13;;;1.55;;
25639;SDS011;13497;48.322;16.204;2022-10-31T10:00:43;3.17;;;1.52;;
25639;SDS011;13497;48.322;16.204;2022-10-31T10:08:32;2.42;;;1.38;;
25639;SDS011;13497;48.322;16.204;2022-10-31T10:25:11;3.90;;;1.77;;
25639;SDS011;13497;48.322;16.204;2022-10-31T10:33:12;2.35;;;1.23;;
25639;SDS011;13497;48.322;16.204;2022-10-31T10:40:39;4.78;;;1.98;;
25639;SDS011;13497;48.322;16.204;2022-10-31T10:45:49;1.92;;;1.20;;
25639;SDS011;13497;48.322;16.204;2022-10-31T10:51:23;1.98;;;1.25;;
25639;SDS011;13497;48.322;16.204;2022-10-31T10:54:29;4.00;;;1.20;;
25639;SDS011;13497;48.322;16.204;2022-10-31T10:59:36;1.90;;;1.40;;
25639;SDS011;13497;48.322;16.204;2022-10-31T11:02:03;1.05;;;0.93;;
25639;SDS011;13497;48.322;16.204;2022-10-31T11:04:40;1.83;;;1.38;;
25639;SDS011;13497;48.322;16.204;2022-10-31T11:07:08;3.25;;;1.65;;
25639;SDS011;13497;48.322;16.204;2022-10-31T11:09:35;1.75;;;1.25;;
25639;SDS011;13497;48.322;16.204;2022-10-31T11:12:21;2.78;;;1.33;;
25639;SDS011;13497;48.322;16.204;2022-10-31T11:14:56;1.85;;;1.35;;
25639;SDS011;13497;48.322;16.204;2022-10-31T11:17:34;1.75;;;1.35;;
25639;SDS011;13497;48.322;16.204;2022-10-31T11:22:42;3.72;;;1.60;;
25639;SDS011;13497;48.322;16.204;2022-10-31T11:25:27;3.63;;;1.63;;
25639;SDS011;13497;48.322;16.204;2022-10-31T11:28:00;2.72;;;1.17;;
25639;SDS011;13497;48.322;16.204;2022-10-31T11:30:25;2.58;;;1.50;;
25639;SDS011;13497;48.322;16.204;2022-10-31T11:32:51;2.37;;;1.50;;
25639;SDS011;13497;48.322;16.204;2022-10-31T11:35:20;1.33;;;1.05;;
25639;SDS011;13497;48.322;16.204;2022-10-31T11:37:47;1.77;;;1.52;;
25639;SDS011;13497;48.322;16.204;2022-10-31T11:40:22;2.45;;;1.80;;
25639;SDS011;13497;48.322;16.204;2022-10-31T11:42:50;2.25;;;1.77;;
25639;SDS011;13497;48.322;16.204;2022-10-31T11:47:49;3.97;;;2.28;;
25639;SDS011;13497;48.322;16.204;2022-10-31T11:50:21;4.32;;;2.15;;
25639;SDS011;13497;48.322;16.204;2022-10-31T11:52:49;5.22;;;2.03;;
25639;SDS011;13497;48.322;16.204;2022-10-31T11:55:25;3.70;;;2.35;;
25639;SDS011;13497;48.322;16.204;2022-10-31T11:57:54;5.55;;;2.33;;
25639;SDS011;13497;48.322;16.204;2022-10-31T12:00:24;7.15;;;2.75;;
25639;SDS011;13497;48.322;16.204;2022-10-31T12:02:51;4.85;;;2.13;;
25639;SDS011;13497;48.322;16.204;2022-10-31T12:05:29;6.53;;;3.15;;
25639;SDS011;13497;48.322;16.204;2022-10-31T12:07:57;6.78;;;2.90;;
25639;SDS011;13497;48.322;16.204;2022-10-31T12:10:24;8.43;;;3.20;;
25639;SDS011;13497;48.322;16.204;2022-10-31T12:15:54;7.38;;;3.30;;
25639;SDS011;13497;48.322;16.204;2022-10-31T12:29:43;7.72;;;3.17;;
25639;SDS011;13497;48.322;16.204;2022-10-31T12:32:20;8.02;;;3.30;;
25639;SDS011;13497;48.322;16.204;2022-10-31T12:46:00;11.88;;;3.58;;
25639;SDS011;13497;48.322;16.204;2022-10-31T12:56:48;5.63;;;3.03;;
25639;SDS011;13497;48.322;16.204;2022-10-31T13:02:13;8.65;;;4.22;;
25639;SDS011;13497;48.322;16.204;2022-10-31T13:04:51;7.78;;;4.35;;
25639;SDS011;13497;48.322;16.204;2022-10-31T13:07:40;6.68;;;3.05;;
25639;SDS011;13497;48.322;16.204;2022-10-31T13:10:20;7.47;;;3.67;;
25639;SDS011;13497;48.322;16.204;2022-10-31T13:12:47;8.38;;;3.38;;
25639;SDS011;13497;48.322;16.204;2022-10-31T13:15:27;14.13;;;4.40;;
25639;SDS011;13497;48.322;16.204;2022-10-31T13:17:59;9.73;;;3.97;;
25639;SDS011;13497;48.322;16.204;2022-10-31T13:20:30;8.18;;;4.22;;
25639;SDS011;13497;48.322;16.204;2022-10-31T13:23:10;10.32;;;4.88;;
25639;SDS011;13497;48.322;16.204;2022-10-31T13:25:47;9.80;;;3.90;;
25639;SDS011;13497;48.322;16.204;2022-10-31T13:31:05;8.15;;;3.50;;
25639;SDS011;13497;48.322;16.204;2022-10-31T13:33:37;12.90;;;3.90;;
25639;SDS011;13497;48.322;16.204;2022-10-31T13:38:52;10.82;;;4.47;;
25639;SDS011;13497;48.322;16.204;2022-10-31T13:44:26;7.88;;;3.72;;
25639;SDS011;13497;48.322;16.204;2022-10-31T13:46:53;9.15;;;3.38;;
25639;SDS011;13497;48.322;16.204;2022-10-31T13:52:31;12.07;;;4.80;;
25639;SDS011;13497;48.322;16.204;2022-10-31T13:54:52;8.02;;;3.55;;
25639;SDS011;13497;48.322;16.204;2022-10-31T14:02:33;11.10;;;4.18;;
25639;SDS011;13497;48.322;16.204;2022-10-31T14:05:05;12.32;;;3.75;;
25639;SDS011;13497;48.322;16.204;2022-10-31T14:07:43;12.57;;;4.53;;
25639;SDS011;13497;48.322;16.204;2022-10-31T14:13:08;9.73;;;4.50;;
25639;SDS011;13497;48.322;16.204;2022-10-31T14:18:30;12.23;;;4.70;;
25639;SDS011;13497;48.322;16.204;2022-10-31T14:20:58;9.98;;;4.45;;
25639;SDS011;13497;48.322;16.204;2022-10-31T14:28:48;14.20;;;6.80;;
25639;SDS011;13497;48.322;16.204;2022-10-31T14:33:57;11.73;;;5.43;;
25639;SDS011;13497;48.322;16.204;2022-10-31T14:36:34;11.05;;;5.40;;
25639;SDS011;13497;48.322;16.204;2022-10-31T14:42:05;13.48;;;5.10;;
25639;SDS011;13497;48.322;16.204;2022-10-31T14:50:22;15.00;;;5.53;;
25639;SDS011;13497;48.322;16.204;2022-10-31T14:52:50;15.35;;;6.30;;
25639;SDS011;13497;48.322;16.204;2022-10-31T14:55:18;17.55;;;5.63;;
25639;SDS011;13497;48.322;16.204;2022-10-31T14:57:59;15.88;;;6.35;;
25639;SDS011;13497;48.322;16.204;2022-10-31T15:00:27;15.82;;;5.43;;
25639;SDS011;13497;48.322;16.204;2022-10-31T15:06:00;17.73;;;7.20;;
25639;SDS011;13497;48.322;16.204;2022-10-31T15:11:16;16.10;;;6.35;;
25639;SDS011;13497;48.322;16.204;2022-10-31T15:18:47;15.15;;;6.38;;
25639;SDS011;13497;48.322;16.204;2022-10-31T15:21:16;17.08;;;6.78;;
25639;SDS011;13497;48.322;16.204;2022-10-31T15:26:15;14.18;;;5.70;;
25639;SDS011;13497;48.322;16.204;2022-10-31T15:28:43;11.10;;;5.15;;
25639;SDS011;13497;48.322;16.204;2022-10-31T15:31:13;16.90;;;7.07;;
25639;SDS011;13497;48.322;16.204;2022-10-31T15:33:42;10.85;;;5.43;;
25639;SDS011;13497;48.322;16.204;2022-10-31T15:36:23;28.85;;;9.25;;
25639;SDS011;13497;48.322;16.204;2022-10-31T15:38:50;26.70;;;7.45;;
25639;SDS011;13497;48.322;16.204;2022-10-31T15:44:11;12.18;;;5.18;;
25639;SDS011;13497;48.322;16.204;2022-10-31T15:46:40;13.15;;;5.45;;
25639;SDS011;13497;48.322;16.204;2022-10-31T15:49:11;11.77;;;5.45;;
25639;SDS011;13497;48.322;16.204;2022-10-31T15:52:25;14.48;;;5.65;;
25639;SDS011;13497;48.322;16.204;2022-10-31T15:54:48;11.02;;;5.40;;
25639;SDS011;13497;48.322;16.204;2022-10-31T15:57:19;13.52;;;6.70;;
25639;SDS011;13497;48.322;16.204;2022-10-31T15:59:46;17.23;;;5.30;;
25639;SDS011;13497;48.322;16.204;2022-10-31T16:02:14;17.88;;;6.57;;
25639;SDS011;13497;48.322;16.204;2022-10-31T16:05:00;19.65;;;6.13;;
25639;SDS011;13497;48.322;16.204;2022-10-31T16:07:26;14.68;;;5.28;;
25639;SDS011;13497;48.322;16.204;2022-10-31T16:09:55;21.60;;;5.78;;
25639;SDS011;13497;48.322;16.204;2022-10-31T16:12:21;14.82;;;6.72;;
25639;SDS011;13497;48.322;16.204;2022-10-31T16:14:48;11.85;;;5.47;;
25639;SDS011;13497;48.322;16.204;2022-10-31T16:17:17;11.48;;;4.97;;
25639;SDS011;13497;48.322;16.204;2022-10-31T16:19:56;12.57;;;4.82;;
25639;SDS011;13497;48.322;16.204;2022-10-31T16:22:37;16.98;;;6.10;;
25639;SDS011;13497;48.322;16.204;2022-10-31T16:25:04;19.50;;;6.10;;
25639;SDS011;13497;48.322;16.204;2022-10-31T16:27:39;19.60;;;6.70;;
25639;SDS011;13497;48.322;16.204;2022-10-31T16:32:57;32.55;;;6.63;;
25639;SDS011;13497;48.322;16.204;2022-10-31T16:35:31;18.95;;;6.15;;
25639;SDS011;13497;48.322;16.204;2022-10-31T16:38:00;25.40;;;9.25;;
25639;SDS011;13497;48.322;16.204;2022-10-31T16:42:53;18.90;;;5.70;;
25639;SDS011;13497;48.322;16.204;2022-10-31T16:45:22;15.00;;;5.13;;
25639;SDS011;13497;48.322;16.204;2022-10-31T16:47:48;11.98;;;5.13;;
25639;SDS011;13497;48.322;16.204;2022-10-31T16:50:22;17.05;;;5.60;;
25639;SDS011;13497;48.322;16.204;2022-10-31T16:52:50;16.65;;;6.47;;
25639;SDS011;13497;48.322;16.204;2022-10-31T16:55:18;15.07;;;6.65;;
25639;SDS011;13497;48.322;16.204;2022-10-31T16:57:49;14.10;;;6.13;;
25639;SDS011;13497;48.322;16.204;2022-10-31T17:00:21;13.05;;;5.95;;
25639;SDS011;13497;48.322;16.204;2022-10-31T17:02:48;16.33;;;5.60;;
25639;SDS011;13497;48.322;16.204;2022-10-31T17:05:17;12.20;;;5.82;;
25639;SDS011;13497;48.322;16.204;2022-10-31T17:07:44;16.13;;;6.00;;
25639;SDS011;13497;48.322;16.204;2022-10-31T17:10:10;11.57;;;4.75;;
25639;SDS011;13497;48.322;16.204;2022-10-31T17:12:38;11.35;;;4.70;;
25639;SDS011;13497;48.322;16.204;2022-10-31T17:15:08;15.30;;;6.45;;
25639;SDS011;13497;48.322;16.204;2022-10-31T17:17:52;14.40;;;5.93;;
25639;SDS011;13497;48.322;16.204;2022-10-31T17:20:26;10.48;;;5.63;;
25639;SDS011;13497;48.322;16.204;2022-10-31T17:22:54;11.68;;;5.05;;
25639;SDS011;13497;48.322;16.204;2022-10-31T17:27:48;10.55;;;4.63;;
25639;SDS011;13497;48.322;16.204;2022-10-31T17:30:15;6.88;;;4.22;;
25639;SDS011;13497;48.322;16.204;2022-10-31T17:32:42;7.88;;;4.13;;
25639;SDS011;13497;48.322;16.204;2022-10-31T17:35:09;13.20;;;4.63;;
25639;SDS011;13497;48.322;16.204;2022-10-31T17:37:37;11.95;;;3.78;;
25639;SDS011;13497;48.322;16.204;2022-10-31T17:40:03;8.60;;;4.00;;
25639;SDS011;13497;48.322;16.204;2022-10-31T17:42:29;13.52;;;3.85;;
25639;SDS011;13497;48.322;16.204;2022-10-31T17:44:55;9.37;;;4.50;;
25639;SDS011;13497;48.322;16.204;2022-10-31T17:47:21;10.90;;;4.23;;
25639;SDS011;13497;48.322;16.204;2022-10-31T17:49:46;12.87;;;4.53;;
25639;SDS011;13497;48.322;16.204;2022-10-31T17:52:12;8.97;;;4.00;;